createdAt,value
2019-05-22T00:00:38.741Z,0.00
2019-05-22T00:01:38.724Z,0.00
2019-05-22T00:02:38.727Z,0.00
2019-05-22T00:03:38.714Z,0.00
2019-05-22T00:04:38.704Z,0.00
2019-05-22T00:05:38.683Z,0.00
2019-05-22T00:06:38.691Z,0.00
2019-05-22T00:07:38.690Z,0.00
2019-05-22T00:08:38.650Z,0.00
2019-05-22T00:09:38.684Z,0.00
2019-05-22T00:10:38.643Z,0.00
2019-05-22T00:11:38.616Z,0.00
2019-05-22T00:12:46.734Z,0.00
2019-05-22T00:13:39.623Z,0.00
2019-05-22T00:14:38.603Z,0.00
2019-05-22T00:15:38.899Z,0.00
2019-05-22T00:16:38.556Z,0.00
2019-05-22T00:17:38.544Z,0.00
2019-05-22T00:18:38.561Z,0.00
2019-05-22T00:19:38.528Z,0.00
2019-05-22T00:20:38.520Z,0.00
2019-05-22T00:21:38.511Z,0.00
2019-05-22T00:22:38.490Z,0.00
2019-05-22T00:23:38.515Z,0.00
2019-05-22T00:24:38.497Z,0.00
2019-05-22T00:25:38.486Z,0.00
2019-05-22T00:26:38.451Z,0.00
2019-05-22T00:27:38.450Z,0.00
2019-05-22T00:28:38.436Z,0.00
2019-05-22T00:29:38.416Z,0.00
2019-05-22T00:30:38.414Z,0.00
2019-05-22T00:31:38.434Z,0.00
2019-05-22T00:32:38.398Z,0.00
2019-05-22T00:33:38.390Z,0.00
2019-05-22T00:34:38.361Z,0.00
2019-05-22T00:35:38.376Z,0.00
2019-05-22T00:36:38.331Z,0.00
2019-05-22T00:37:38.324Z,0.00
2019-05-22T00:38:38.338Z,0.00
2019-05-22T00:39:38.376Z,0.00
2019-05-22T00:40:39.192Z,0.00
2019-05-22T00:41:38.293Z,0.00
2019-05-22T00:42:38.279Z,0.00
2019-05-22T00:43:38.298Z,0.00
2019-05-22T00:44:38.253Z,0.00
2019-05-22T00:45:38.235Z,0.00
2019-05-22T00:46:38.222Z,0.00
2019-05-22T00:47:38.220Z,0.00
2019-05-22T00:48:38.227Z,0.00
2019-05-22T00:49:38.185Z,0.00
2019-05-22T00:50:38.180Z,0.00
2019-05-22T00:51:38.168Z,0.00
2019-05-22T00:52:38.173Z,0.00
2019-05-22T00:53:38.179Z,0.00
2019-05-22T00:54:38.148Z,0.00
2019-05-22T00:55:38.129Z,0.00
2019-05-22T00:56:38.120Z,0.00
2019-05-22T00:57:38.101Z,0.00
2019-05-22T00:58:38.139Z,0.00
2019-05-22T00:59:38.121Z,0.00
2019-05-22T01:00:38.070Z,0.00
2019-05-22T01:01:38.064Z,0.00
2019-05-22T01:02:38.045Z,0.00
2019-05-22T01:03:38.049Z,0.00
2019-05-22T01:04:38.053Z,0.00
2019-05-22T01:05:38.019Z,0.00
2019-05-22T01:06:38.009Z,0.00
2019-05-22T01:07:38.007Z,0.00
2019-05-22T01:08:38.014Z,0.00
2019-05-22T01:09:37.988Z,0.00
2019-05-22T01:10:37.992Z,0.00
2019-05-22T01:11:37.961Z,0.00
2019-05-22T01:12:37.933Z,0.00
2019-05-22T01:13:37.923Z,0.00
2019-05-22T01:14:42.772Z,0.00
2019-05-22T01:15:38.898Z,0.00
2019-05-22T01:16:37.894Z,0.00
2019-05-22T01:17:37.888Z,0.00
2019-05-22T01:18:37.898Z,0.00
2019-05-22T01:19:37.890Z,0.00
2019-05-22T01:20:37.851Z,0.00
2019-05-22T01:21:37.834Z,0.00
2019-05-22T01:22:37.826Z,0.00
2019-05-22T01:23:37.812Z,0.00
2019-05-22T01:24:37.811Z,0.00
2019-05-22T01:25:37.823Z,0.00
2019-05-22T01:26:37.784Z,0.00
2019-05-22T01:27:37.770Z,0.00
2019-05-22T01:28:37.766Z,0.00
2019-05-22T01:29:37.758Z,0.00
2019-05-22T01:30:37.764Z,0.00
2019-05-22T01:31:37.728Z,0.00
2019-05-22T01:32:37.721Z,0.00
2019-05-22T01:33:37.736Z,0.00
2019-05-22T01:34:37.733Z,0.00
2019-05-22T01:35:37.713Z,0.00
2019-05-22T01:36:37.698Z,0.00
2019-05-22T01:37:37.662Z,0.00
2019-05-22T01:38:37.662Z,0.00
2019-05-22T01:39:37.645Z,0.00
2019-05-22T01:40:37.642Z,0.00
2019-05-22T01:41:37.621Z,0.00
2019-05-22T01:42:37.598Z,0.00
2019-05-22T01:43:37.600Z,0.00
2019-05-22T01:44:37.596Z,0.00
2019-05-22T01:45:37.627Z,0.00
2019-05-22T01:46:37.557Z,0.00
2019-05-22T01:47:37.559Z,0.00
2019-05-22T01:48:37.537Z,0.00
2019-05-22T01:49:37.528Z,0.00
2019-05-22T01:50:37.567Z,0.00
2019-05-22T01:51:37.500Z,0.00
2019-05-22T01:52:37.501Z,0.00
2019-05-22T01:53:37.484Z,0.00
2019-05-22T01:54:37.467Z,0.00
2019-05-22T01:55:37.478Z,0.00
2019-05-22T01:56:37.461Z,0.00
2019-05-22T01:57:37.442Z,0.00
2019-05-22T01:58:37.513Z,0.00
2019-05-22T01:59:37.418Z,0.00
2019-05-22T02:00:37.458Z,0.00
2019-05-22T02:01:37.404Z,0.00
2019-05-22T02:02:37.385Z,0.00
2019-05-22T02:03:37.385Z,0.00
2019-05-22T02:04:37.367Z,0.00
2019-05-22T02:05:37.361Z,0.00
2019-05-22T02:06:37.399Z,0.00
2019-05-22T02:07:37.340Z,0.00
2019-05-22T02:08:37.313Z,0.00
2019-05-22T02:09:37.315Z,0.00
2019-05-22T02:10:37.310Z,0.00
2019-05-22T02:11:37.302Z,0.00
2019-05-22T02:12:37.295Z,0.00
2019-05-22T02:13:37.261Z,0.00
2019-05-22T02:14:37.257Z,0.00
2019-05-22T02:15:37.233Z,0.00
2019-05-22T02:16:37.265Z,0.00
2019-05-22T02:17:37.224Z,0.00
2019-05-22T02:18:37.198Z,0.00
2019-05-22T02:19:37.197Z,0.00
2019-05-22T02:20:37.183Z,0.00
2019-05-22T02:21:37.190Z,0.00
2019-05-22T02:22:37.155Z,0.00
2019-05-22T02:23:37.164Z,0.00
2019-05-22T02:24:37.140Z,0.00
2019-05-22T02:25:37.154Z,0.00
2019-05-22T02:26:37.131Z,0.00
2019-05-22T02:27:37.097Z,0.00
2019-05-22T02:28:37.100Z,0.00
2019-05-22T02:29:37.093Z,0.00
2019-05-22T02:30:37.079Z,0.00
2019-05-22T02:31:37.084Z,0.00
2019-05-22T02:32:37.046Z,0.00
2019-05-22T02:33:37.060Z,0.00
2019-05-22T02:34:37.034Z,0.00
2019-05-22T02:35:37.052Z,0.00
2019-05-22T02:36:37.068Z,0.00
2019-05-22T02:37:36.997Z,0.00
2019-05-22T02:38:37.001Z,0.00
2019-05-22T02:39:36.973Z,0.00
2019-05-22T02:40:36.978Z,0.00
2019-05-22T02:41:36.967Z,0.00
2019-05-22T02:42:36.969Z,4.00
2019-05-22T02:43:36.930Z,4.00
2019-05-22T02:44:36.911Z,4.00
2019-05-22T02:45:36.909Z,4.00
2019-05-22T02:46:36.898Z,4.00
2019-05-22T02:47:36.904Z,4.00
2019-05-22T02:48:36.874Z,4.00
2019-05-22T02:49:36.858Z,0.00
2019-05-22T02:50:36.842Z,4.00
2019-05-22T02:51:36.846Z,4.00
2019-05-22T02:52:36.860Z,0.00
2019-05-22T02:53:36.819Z,4.00
2019-05-22T02:54:36.817Z,4.00
2019-05-22T02:55:36.796Z,4.00
2019-05-22T02:56:36.791Z,4.00
2019-05-22T02:57:36.791Z,4.00
2019-05-22T02:58:36.754Z,4.00
2019-05-22T02:59:36.787Z,4.00
2019-05-22T03:00:36.737Z,4.00
2019-05-22T03:01:36.731Z,8.00
2019-05-22T03:02:36.740Z,8.00
2019-05-22T03:03:36.755Z,8.00
2019-05-22T03:04:36.694Z,8.00
2019-05-22T03:05:36.698Z,4.00
2019-05-22T03:06:36.686Z,4.00
2019-05-22T03:07:36.663Z,8.00
2019-05-22T03:08:36.685Z,8.00
2019-05-22T03:09:36.648Z,8.00
2019-05-22T03:10:36.645Z,12.00
2019-05-22T03:11:36.624Z,8.00
2019-05-22T03:12:36.610Z,8.00
2019-05-22T03:13:36.847Z,8.00
2019-05-22T03:14:36.593Z,12.00
2019-05-22T03:15:36.618Z,12.00
2019-05-22T03:16:36.621Z,12.00
2019-05-22T03:17:37.259Z,16.00
2019-05-22T03:18:36.560Z,16.00
2019-05-22T03:19:36.555Z,16.00
2019-05-22T03:20:36.537Z,16.00
2019-05-22T03:21:36.530Z,16.00
2019-05-22T03:22:36.498Z,20.00
2019-05-22T03:23:36.876Z,20.00
2019-05-22T03:24:36.481Z,20.00
2019-05-22T03:25:36.469Z,24.00
2019-05-22T03:26:36.457Z,20.00
2019-05-22T03:27:36.435Z,24.00
2019-05-22T03:28:36.457Z,24.00
2019-05-22T03:29:36.426Z,28.00
2019-05-22T03:30:36.422Z,28.00
2019-05-22T03:31:36.489Z,24.00
2019-05-22T03:32:43.033Z,32.00
2019-05-22T03:33:37.419Z,32.00
2019-05-22T03:34:36.353Z,28.00
2019-05-22T03:35:36.361Z,36.00
2019-05-22T03:36:36.345Z,36.00
2019-05-22T03:37:36.318Z,36.00
2019-05-22T03:38:36.309Z,40.00
2019-05-22T03:39:36.347Z,40.00
2019-05-22T03:40:36.286Z,44.00
2019-05-22T03:41:36.275Z,44.00
2019-05-22T03:42:36.265Z,48.00
2019-05-22T03:43:36.259Z,44.00
2019-05-22T03:44:36.260Z,52.00
2019-05-22T03:45:36.243Z,56.00
2019-05-22T03:46:36.277Z,52.00
2019-05-22T03:47:36.232Z,60.00
2019-05-22T03:48:36.205Z,48.00
2019-05-22T03:49:36.216Z,56.00
2019-05-22T03:50:36.202Z,52.00
2019-05-22T03:51:36.167Z,52.00
2019-05-22T03:52:36.161Z,48.00
2019-05-22T03:53:36.142Z,52.00
2019-05-22T03:54:36.198Z,52.00
2019-05-22T03:55:36.127Z,52.00
2019-05-22T03:56:36.145Z,60.00
2019-05-22T03:57:36.102Z,52.00
2019-05-22T03:58:36.095Z,56.00
2019-05-22T03:59:36.112Z,60.00
2019-05-22T04:00:36.089Z,56.00
2019-05-22T04:01:36.060Z,60.00
2019-05-22T04:02:36.052Z,68.00
2019-05-22T04:03:36.046Z,68.00
2019-05-22T04:04:36.033Z,60.00
2019-05-22T04:05:36.048Z,72.00
2019-05-22T04:06:36.007Z,72.00
2019-05-22T04:07:35.995Z,68.00
2019-05-22T04:08:35.979Z,68.00
2019-05-22T04:09:35.966Z,68.00
2019-05-22T04:10:35.979Z,72.00
2019-05-22T04:11:35.950Z,88.00
2019-05-22T04:12:35.956Z,84.00
2019-05-22T04:13:35.940Z,84.00
2019-05-22T04:14:35.936Z,76.00
2019-05-22T04:15:35.922Z,84.00
2019-05-22T04:16:35.939Z,80.00
2019-05-22T04:17:35.877Z,88.00
2019-05-22T04:18:35.888Z,92.00
2019-05-22T04:19:48.408Z,92.00
2019-05-22T04:20:36.871Z,100.00
2019-05-22T04:21:35.845Z,96.00
2019-05-22T04:22:35.824Z,88.00
2019-05-22T04:23:35.820Z,100.00
2019-05-22T04:24:35.805Z,100.00
2019-05-22T04:25:35.812Z,96.00
2019-05-22T04:26:35.788Z,88.00
2019-05-22T04:27:35.766Z,100.00
2019-05-22T04:28:35.757Z,112.00
2019-05-22T04:29:35.751Z,104.00
2019-05-22T04:30:35.770Z,104.00
2019-05-22T04:31:35.722Z,104.00
2019-05-22T04:32:35.722Z,100.00
2019-05-22T04:33:35.698Z,112.00
2019-05-22T04:34:35.686Z,120.00
2019-05-22T04:35:35.710Z,124.00
2019-05-22T04:36:35.659Z,132.00
2019-05-22T04:37:35.668Z,104.00
2019-05-22T04:38:35.657Z,132.00
2019-05-22T04:39:35.640Z,148.00
2019-05-22T04:40:35.680Z,100.00
2019-05-22T04:41:35.612Z,112.00
2019-05-22T04:42:35.612Z,112.00
2019-05-22T04:43:35.592Z,104.00
2019-05-22T04:44:35.583Z,120.00
2019-05-22T04:45:35.568Z,124.00
2019-05-22T04:46:35.579Z,120.00
2019-05-22T04:47:35.536Z,136.00
2019-05-22T04:48:35.546Z,124.00
2019-05-22T04:49:35.537Z,136.00
2019-05-22T04:50:35.515Z,120.00
2019-05-22T04:51:35.525Z,128.00
2019-05-22T04:52:35.501Z,136.00
2019-05-22T04:53:35.476Z,140.00
2019-05-22T04:54:35.470Z,136.00
2019-05-22T04:55:35.478Z,164.00
2019-05-22T04:56:35.501Z,164.00
2019-05-22T04:57:35.446Z,160.00
2019-05-22T04:58:35.429Z,168.00
2019-05-22T04:59:35.408Z,180.00
2019-05-22T05:00:35.405Z,168.00
2019-05-22T05:01:35.419Z,168.00
2019-05-22T05:02:35.383Z,192.00
2019-05-22T05:03:35.375Z,236.00
2019-05-22T05:04:35.361Z,252.00
2019-05-22T05:05:35.347Z,276.00
2019-05-22T05:06:35.364Z,252.00
2019-05-22T05:07:35.325Z,288.00
2019-05-22T05:08:35.322Z,268.00
2019-05-22T05:09:35.300Z,260.00
2019-05-22T05:10:35.291Z,240.00
2019-05-22T05:11:35.305Z,240.00
2019-05-22T05:12:35.308Z,268.00
2019-05-22T05:13:35.260Z,272.00
2019-05-22T05:14:35.251Z,240.00
2019-05-22T05:15:37.263Z,308.00
2019-05-22T05:16:35.286Z,332.00
2019-05-22T05:17:35.214Z,316.00
2019-05-22T05:18:35.235Z,320.00
2019-05-22T05:19:35.193Z,332.00
2019-05-22T05:20:35.188Z,356.00
2019-05-22T05:21:35.192Z,376.00
2019-05-22T05:22:35.163Z,408.00
2019-05-22T05:23:35.158Z,408.00
2019-05-22T05:24:35.154Z,360.00
2019-05-22T05:25:35.125Z,356.00
2019-05-22T05:26:35.130Z,364.00
2019-05-22T05:27:35.145Z,360.00
2019-05-22T05:28:35.138Z,388.00
2019-05-22T05:29:35.104Z,416.00
2019-05-22T05:30:35.072Z,432.00
2019-05-22T05:31:35.072Z,432.00
2019-05-22T05:32:35.046Z,476.00
2019-05-22T05:33:35.037Z,428.00
2019-05-22T05:34:35.018Z,440.00
2019-05-22T05:35:35.018Z,412.00
2019-05-22T05:36:35.021Z,416.00
2019-05-22T05:37:35.004Z,424.00
2019-05-22T05:38:34.970Z,444.00
2019-05-22T05:39:35.078Z,440.00
2019-05-22T05:40:34.971Z,428.00
2019-05-22T05:41:34.968Z,412.00
2019-05-22T05:42:34.951Z,460.00
2019-05-22T05:43:34.940Z,464.00
2019-05-22T05:44:34.917Z,444.00
2019-05-22T05:45:34.903Z,448.00
2019-05-22T05:46:34.908Z,484.00
2019-05-22T05:47:34.883Z,524.00
2019-05-22T05:48:34.889Z,560.00
2019-05-22T05:49:34.867Z,468.00
2019-05-22T05:50:39.383Z,488.00
2019-05-22T05:51:35.858Z,480.00
2019-05-22T05:52:34.824Z,476.00
2019-05-22T05:53:34.807Z,484.00
2019-05-22T05:54:34.821Z,456.00
2019-05-22T05:55:34.784Z,496.00
2019-05-22T05:56:34.800Z,540.00
2019-05-22T05:57:34.772Z,648.00
2019-05-22T05:58:34.752Z,648.00
2019-05-22T05:59:34.748Z,600.00
2019-05-22T06:00:34.771Z,664.00
2019-05-22T06:01:34.786Z,864.00
2019-05-22T06:02:34.732Z,752.00
2019-05-22T06:03:34.698Z,768.00
2019-05-22T06:04:35.619Z,568.00
2019-05-22T06:05:34.676Z,636.00
2019-05-22T06:06:34.748Z,584.00
2019-05-22T06:07:34.693Z,528.00
2019-05-22T06:08:34.640Z,532.00
2019-05-22T06:09:34.656Z,672.00
2019-05-22T06:10:34.641Z,576.00
2019-05-22T06:11:34.634Z,840.00
2019-05-22T06:12:34.626Z,692.00
2019-05-22T06:13:34.592Z,708.00
2019-05-22T06:14:34.582Z,652.00
2019-05-22T06:15:46.595Z,536.00
2019-05-22T06:16:35.580Z,444.00
2019-05-22T06:17:34.557Z,600.00
2019-05-22T06:18:34.529Z,928.00
2019-05-22T06:19:34.535Z,764.00
2019-05-22T06:20:34.507Z,656.00
2019-05-22T06:21:34.519Z,464.00
2019-05-22T06:22:34.519Z,400.00
2019-05-22T06:23:34.472Z,428.00
2019-05-22T06:24:34.478Z,488.00
2019-05-22T06:25:34.453Z,436.00
2019-05-22T06:26:34.453Z,504.00
2019-05-22T06:27:34.454Z,512.00
2019-05-22T06:28:34.433Z,520.00
2019-05-22T06:29:34.410Z,552.00
2019-05-22T06:30:34.406Z,632.00
2019-05-22T06:31:34.391Z,672.00
2019-05-22T06:32:34.413Z,728.00
2019-05-22T06:33:34.357Z,764.00
2019-05-22T06:34:34.371Z,764.00
2019-05-22T06:35:34.337Z,700.00
2019-05-22T06:36:34.327Z,688.00
2019-05-22T06:37:34.371Z,704.00
2019-05-22T06:38:34.321Z,704.00
2019-05-22T06:39:34.304Z,692.00
2019-05-22T06:40:34.301Z,684.00
2019-05-22T06:41:34.275Z,676.00
2019-05-22T06:42:34.332Z,636.00
2019-05-22T06:43:34.261Z,680.00
2019-05-22T06:44:34.245Z,660.00
2019-05-22T06:45:35.670Z,664.00
2019-05-22T06:46:34.233Z,656.00
2019-05-22T06:47:34.247Z,660.00
2019-05-22T06:48:34.199Z,768.00
2019-05-22T06:49:34.195Z,720.00
2019-05-22T06:50:34.178Z,656.00
2019-05-22T06:51:34.175Z,624.00
2019-05-22T06:52:34.272Z,636.00
2019-05-22T06:53:34.205Z,680.00
2019-05-22T06:54:34.379Z,556.00
2019-05-22T06:55:34.147Z,600.00
2019-05-22T06:56:34.107Z,580.00
2019-05-22T06:57:34.117Z,600.00
2019-05-22T06:58:34.103Z,640.00
2019-05-22T06:59:34.100Z,708.00
2019-05-22T07:00:34.077Z,660.00
2019-05-22T07:01:34.076Z,524.00
2019-05-22T07:02:34.061Z,568.00
2019-05-22T07:03:34.043Z,612.00
2019-05-22T07:04:34.023Z,660.00
2019-05-22T07:05:34.011Z,688.00
2019-05-22T07:06:34.012Z,744.00
2019-05-22T07:07:34.014Z,856.00
2019-05-22T07:08:33.990Z,956.00
2019-05-22T07:09:34.024Z,968.00
2019-05-22T07:10:33.951Z,956.00
2019-05-22T07:11:33.986Z,976.00
2019-05-22T07:12:33.934Z,1044.00
2019-05-22T07:13:33.950Z,992.00
2019-05-22T07:14:33.920Z,988.00
2019-05-22T07:15:33.900Z,984.00
2019-05-22T07:16:33.893Z,1068.00
2019-05-22T07:17:33.888Z,1176.00
2019-05-22T07:18:33.890Z,1000.00
2019-05-22T07:19:33.857Z,940.00
2019-05-22T07:20:33.857Z,1044.00
2019-05-22T07:21:34.311Z,880.00
2019-05-22T07:22:33.826Z,880.00
2019-05-22T07:23:33.836Z,940.00
2019-05-22T07:24:33.801Z,952.00
2019-05-22T07:25:33.831Z,928.00
2019-05-22T07:26:33.766Z,1088.00
2019-05-22T07:27:33.770Z,1168.00
2019-05-22T07:28:33.780Z,868.00
2019-05-22T07:29:33.755Z,868.00
2019-05-22T07:30:33.742Z,1088.00
2019-05-22T07:31:33.730Z,972.00
2019-05-22T07:32:33.721Z,1068.00
2019-05-22T07:33:33.741Z,1084.00
2019-05-22T07:34:33.683Z,1192.00
2019-05-22T07:35:49.714Z,1272.00
2019-05-22T07:36:34.670Z,1276.00
2019-05-22T07:37:33.744Z,1276.00
2019-05-22T07:38:33.707Z,1352.00
2019-05-22T07:39:33.628Z,1272.00
2019-05-22T07:40:33.620Z,1276.00
2019-05-22T07:41:33.640Z,1164.00
2019-05-22T07:42:33.610Z,1036.00
2019-05-22T07:43:33.619Z,1000.00
2019-05-22T07:44:33.577Z,1172.00
2019-05-22T07:45:33.575Z,984.00
2019-05-22T07:46:33.565Z,912.00
2019-05-22T07:47:33.550Z,824.00
2019-05-22T07:48:33.551Z,792.00
2019-05-22T07:49:33.526Z,824.00
2019-05-22T07:50:33.512Z,920.00
2019-05-22T07:51:33.519Z,856.00
2019-05-22T07:52:33.498Z,908.00
2019-05-22T07:53:33.506Z,972.00
2019-05-22T07:54:33.477Z,1020.00
2019-05-22T07:55:33.466Z,908.00
2019-05-22T07:56:33.449Z,908.00
2019-05-22T07:57:33.446Z,916.00
2019-05-22T07:58:33.445Z,952.00
2019-05-22T07:59:33.414Z,936.00
2019-05-22T08:00:33.406Z,996.00
2019-05-22T08:01:33.390Z,1040.00
2019-05-22T08:02:33.393Z,1036.00
2019-05-22T08:03:33.390Z,1104.00
2019-05-22T08:04:33.355Z,1144.00
2019-05-22T08:05:33.358Z,1084.00
2019-05-22T08:06:33.352Z,1068.00
2019-05-22T08:07:33.336Z,1100.00
2019-05-22T08:08:33.421Z,1072.00
2019-05-22T08:09:33.328Z,1096.00
2019-05-22T08:10:33.407Z,1172.00
2019-05-22T08:11:33.275Z,1132.00
2019-05-22T08:12:33.365Z,1128.00
2019-05-22T08:13:33.283Z,1148.00
2019-05-22T08:14:33.254Z,1100.00
2019-05-22T08:15:33.232Z,1180.00
2019-05-22T08:16:33.229Z,1124.00
2019-05-22T08:17:33.209Z,1088.00
2019-05-22T08:18:33.229Z,1064.00
2019-05-22T08:19:33.199Z,1132.00
2019-05-22T08:20:33.185Z,1300.00
2019-05-22T08:21:33.206Z,1144.00
2019-05-22T08:22:33.156Z,1260.00
2019-05-22T08:23:33.174Z,1352.00
2019-05-22T08:24:33.135Z,1316.00
2019-05-22T08:25:33.116Z,1428.00
2019-05-22T08:26:33.129Z,1384.00
2019-05-22T08:27:33.098Z,1460.00
2019-05-22T08:28:33.209Z,1356.00
2019-05-22T08:29:33.070Z,1336.00
2019-05-22T08:30:33.069Z,1372.00
2019-05-22T08:31:33.056Z,1376.00
2019-05-22T08:32:33.044Z,1560.00
2019-05-22T08:33:33.031Z,1256.00
2019-05-22T08:34:33.065Z,1472.00
2019-05-22T08:35:32.999Z,1460.00
2019-05-22T08:36:33.063Z,1296.00
2019-05-22T08:37:33.001Z,1348.00
2019-05-22T08:38:32.977Z,1276.00
2019-05-22T08:39:32.982Z,1360.00
2019-05-22T08:40:32.978Z,1488.00
2019-05-22T08:41:33.043Z,1408.00
2019-05-22T08:42:35.474Z,1332.00
2019-05-22T08:43:52.348Z,1484.00
2019-05-22T08:44:33.933Z,1240.00
2019-05-22T08:45:32.909Z,1212.00
2019-05-22T08:46:32.888Z,1236.00
2019-05-22T08:47:32.877Z,1328.00
2019-05-22T08:48:32.867Z,1416.00
2019-05-22T08:49:32.874Z,1468.00
2019-05-22T08:50:32.909Z,1500.00
2019-05-22T08:51:32.847Z,1484.00
2019-05-22T08:52:32.817Z,1472.00
2019-05-22T08:53:46.008Z,1544.00
2019-05-22T08:54:33.817Z,1568.00
2019-05-22T08:55:32.803Z,1548.00
2019-05-22T08:56:32.772Z,1540.00
2019-05-22T08:57:32.764Z,1652.00
2019-05-22T08:58:32.758Z,1604.00
2019-05-22T08:59:32.759Z,1740.00
2019-05-22T09:00:32.766Z,1612.00
2019-05-22T09:01:32.734Z,1712.00
2019-05-22T09:02:32.750Z,1704.00
2019-05-22T09:03:32.707Z,1648.00
2019-05-22T09:04:32.729Z,1756.00
2019-05-22T09:05:32.689Z,1708.00
2019-05-22T09:06:32.704Z,1624.00
2019-05-22T09:07:32.646Z,1684.00
2019-05-22T09:08:32.747Z,1688.00
2019-05-22T09:09:32.665Z,1720.00
2019-05-22T09:10:32.642Z,1736.00
2019-05-22T09:11:32.701Z,1656.00
2019-05-22T09:12:32.671Z,1712.00
2019-05-22T09:13:32.599Z,1564.00
2019-05-22T09:14:32.629Z,1544.00
2019-05-22T09:15:32.571Z,1740.00
2019-05-22T09:16:32.558Z,1664.00
2019-05-22T09:17:32.548Z,1600.00
2019-05-22T09:18:32.533Z,1608.00
2019-05-22T09:19:32.535Z,1692.00
2019-05-22T09:20:48.147Z,1812.00
2019-05-22T09:21:32.506Z,2064.00
2019-05-22T09:22:40.512Z,2140.00
2019-05-22T09:23:33.484Z,2036.00
2019-05-22T09:24:32.523Z,2104.00
2019-05-22T09:25:32.450Z,2120.00
2019-05-22T09:26:32.443Z,1832.00
2019-05-22T09:27:32.427Z,1832.00
2019-05-22T09:28:32.423Z,1920.00
2019-05-22T09:29:32.435Z,1768.00
2019-05-22T09:30:32.400Z,1720.00
2019-05-22T09:31:32.395Z,1804.00
2019-05-22T09:32:32.411Z,1704.00
2019-05-22T09:33:32.369Z,1892.00
2019-05-22T09:34:32.365Z,1720.00
2019-05-22T09:35:32.366Z,1756.00
2019-05-22T09:36:32.332Z,1836.00
2019-05-22T09:37:32.334Z,1828.00
2019-05-22T09:38:32.401Z,1984.00
2019-05-22T09:39:32.327Z,1724.00
2019-05-22T09:40:32.289Z,1944.00
2019-05-22T09:41:32.287Z,2232.00
2019-05-22T09:42:32.271Z,2120.00
2019-05-22T09:43:32.270Z,2004.00
2019-05-22T09:44:32.276Z,2048.00
2019-05-22T09:45:32.275Z,1924.00
2019-05-22T09:46:32.239Z,1760.00
2019-05-22T09:47:32.215Z,1796.00
2019-05-22T09:48:32.195Z,1808.00
2019-05-22T09:49:32.233Z,1776.00
2019-05-22T09:50:32.179Z,1988.00
2019-05-22T09:51:32.192Z,1908.00
2019-05-22T09:52:32.161Z,1968.00
2019-05-22T09:53:32.145Z,2072.00
2019-05-22T09:54:32.140Z,1932.00
2019-05-22T09:55:32.152Z,1880.00
2019-05-22T09:56:32.105Z,1964.00
2019-05-22T09:57:32.108Z,1920.00
2019-05-22T09:58:32.094Z,1772.00
2019-05-22T09:59:32.085Z,1796.00
2019-05-22T10:00:32.085Z,1952.00
2019-05-22T10:01:32.094Z,2024.00
2019-05-22T10:02:32.052Z,1824.00
2019-05-22T10:03:32.043Z,1680.00
2019-05-22T10:04:32.076Z,1880.00
2019-05-22T10:05:32.033Z,1688.00
2019-05-22T10:06:32.048Z,1500.00
2019-05-22T10:07:32.025Z,1468.00
2019-05-22T10:08:31.983Z,1792.00
2019-05-22T10:09:31.982Z,1628.00
2019-05-22T10:10:31.976Z,1704.00
2019-05-22T10:11:31.951Z,1588.00
2019-05-22T10:12:31.933Z,1512.00
2019-05-22T10:13:32.039Z,1388.00
2019-05-22T10:14:31.932Z,1376.00
2019-05-22T10:15:32.366Z,1572.00
2019-05-22T10:16:31.907Z,1416.00
2019-05-22T10:17:31.887Z,1492.00
2019-05-22T10:18:31.884Z,1376.00
2019-05-22T10:19:31.855Z,1496.00
2019-05-22T10:20:31.846Z,1292.00
2019-05-22T10:21:31.867Z,1376.00
2019-05-22T10:22:31.836Z,1272.00
2019-05-22T10:23:31.806Z,1188.00
2019-05-22T10:24:31.816Z,1228.00
2019-05-22T10:25:31.820Z,1316.00
2019-05-22T10:26:31.792Z,1200.00
2019-05-22T10:27:31.761Z,1244.00
2019-05-22T10:28:31.770Z,1212.00
2019-05-22T10:29:32.437Z,1232.00
2019-05-22T10:30:31.757Z,1324.00
2019-05-22T10:31:31.718Z,1240.00
2019-05-22T10:32:32.517Z,1272.00
2019-05-22T10:33:31.710Z,1304.00
2019-05-22T10:34:31.689Z,1216.00
2019-05-22T10:35:31.711Z,1256.00
2019-05-22T10:36:31.659Z,1220.00
2019-05-22T10:37:31.672Z,1208.00
2019-05-22T10:38:31.706Z,1168.00
2019-05-22T10:43:14.555Z,1288.00
2019-05-22T10:44:00.471Z,1328.00
2019-05-22T10:45:00.457Z,1252.00
2019-05-22T10:46:00.477Z,1332.00
2019-05-22T10:47:00.448Z,1212.00
2019-05-22T10:48:00.445Z,1228.00
2019-05-22T10:49:00.409Z,1300.00
2019-05-22T10:50:00.407Z,1300.00
2019-05-22T10:51:00.418Z,1380.00
2019-05-22T10:52:00.375Z,1404.00
2019-05-22T10:53:00.371Z,1312.00
2019-05-22T10:54:00.375Z,1376.00
2019-05-22T10:55:00.339Z,1412.00
2019-05-22T10:56:00.360Z,1432.00
2019-05-22T10:57:00.322Z,1388.00
2019-05-22T10:58:00.304Z,1480.00
2019-05-22T10:59:01.702Z,1544.00
2019-05-22T11:00:00.310Z,1548.00
2019-05-22T11:01:00.307Z,1580.00
2019-05-22T11:02:00.269Z,1536.00
2019-05-22T11:03:00.269Z,1596.00
2019-05-22T11:04:00.262Z,1616.00
2019-05-22T11:05:00.269Z,1720.00
2019-05-22T11:06:07.181Z,1588.00
2019-05-22T11:07:01.247Z,1648.00
2019-05-22T11:08:00.201Z,1588.00
2019-05-22T11:09:00.193Z,1652.00
2019-05-22T11:10:00.206Z,1756.00
2019-05-22T11:11:00.179Z,1736.00
2019-05-22T11:12:00.184Z,1636.00
2019-05-22T11:13:00.146Z,1596.00
2019-05-22T11:14:01.936Z,1512.00
2019-05-22T11:15:00.123Z,1608.00
2019-05-22T11:16:00.113Z,1640.00
2019-05-22T11:17:01.554Z,1592.00
2019-05-22T11:18:00.085Z,1596.00
2019-05-22T11:19:00.097Z,1792.00
2019-05-22T11:20:00.067Z,1344.00
2019-05-22T11:21:00.063Z,1432.00
2019-05-22T11:22:00.067Z,1352.00
2019-05-22T11:23:00.033Z,1332.00
2019-05-22T11:24:00.025Z,1292.00
2019-05-22T11:25:00.002Z,1472.00
2019-05-22T11:26:00.040Z,1284.00
2019-05-22T11:27:00.010Z,1240.00
2019-05-22T11:27:59.982Z,1336.00
2019-05-22T11:29:00.026Z,1300.00
2019-05-22T11:29:59.966Z,1240.00
2019-05-22T11:30:59.972Z,1224.00
2019-05-22T11:31:59.961Z,1180.00
2019-05-22T11:32:59.923Z,1196.00
2019-05-22T11:33:59.935Z,1232.00
2019-05-22T11:35:00.273Z,1252.00
2019-05-22T11:35:59.890Z,1520.00
2019-05-22T11:36:59.903Z,1380.00
2019-05-22T11:37:59.872Z,1400.00
2019-05-22T11:38:59.880Z,1600.00
2019-05-22T11:39:59.854Z,1352.00
2019-05-22T11:40:59.840Z,1380.00
2019-05-22T11:41:59.852Z,1328.00
2019-05-22T11:42:59.832Z,1428.00
2019-05-22T11:43:59.811Z,1480.00
2019-05-22T11:44:59.783Z,1296.00
2019-05-22T11:45:59.799Z,1240.00
2019-05-22T11:46:59.813Z,1180.00
2019-05-22T11:47:59.802Z,1176.00
2019-05-22T11:48:59.757Z,1088.00
2019-05-22T11:49:59.729Z,1112.00
2019-05-22T11:51:01.090Z,1112.00
2019-05-22T11:51:59.743Z,980.00
2019-05-22T11:52:59.703Z,1152.00
2019-05-22T11:54:09.069Z,1188.00
2019-05-22T11:55:00.684Z,1212.00
2019-05-22T11:55:59.666Z,1252.00
2019-05-22T11:56:59.712Z,1180.00
2019-05-22T11:57:59.649Z,1076.00
2019-05-22T11:58:59.634Z,1020.00
2019-05-22T11:59:59.625Z,1172.00
2019-05-22T12:00:59.607Z,1108.00
2019-05-22T12:01:59.668Z,1216.00
2019-05-22T12:02:59.599Z,1012.00
2019-05-22T12:03:59.612Z,980.00
2019-05-22T12:04:59.568Z,908.00
2019-05-22T12:05:59.573Z,972.00
2019-05-22T12:06:59.583Z,948.00
2019-05-22T12:07:59.548Z,1052.00
2019-05-22T12:08:59.527Z,924.00
2019-05-22T12:09:59.516Z,964.00
2019-05-22T12:10:59.603Z,932.00
2019-05-22T12:11:59.499Z,912.00
2019-05-22T12:12:59.581Z,900.00
2019-05-22T12:13:59.476Z,1036.00
2019-05-22T12:14:59.460Z,1036.00
2019-05-22T12:15:59.489Z,1056.00
2019-05-22T12:16:59.431Z,1060.00
2019-05-22T12:17:59.438Z,1140.00
2019-05-22T12:18:59.407Z,1108.00
2019-05-22T12:19:59.391Z,1072.00
2019-05-22T12:20:59.391Z,1112.00
2019-05-22T12:21:59.372Z,1136.00
2019-05-22T12:22:59.420Z,1080.00
2019-05-22T12:23:59.390Z,1212.00
2019-05-22T12:24:59.349Z,1236.00
2019-05-22T12:25:59.342Z,1228.00
2019-05-22T12:26:59.335Z,1200.00
2019-05-22T12:27:59.336Z,1140.00
2019-05-22T12:28:59.310Z,1144.00
2019-05-22T12:29:59.393Z,1136.00
2019-05-22T12:30:59.290Z,1272.00
2019-05-22T12:31:59.304Z,1236.00
2019-05-22T12:32:59.307Z,1304.00
2019-05-22T12:33:59.249Z,1192.00
2019-05-22T12:34:59.259Z,1312.00
2019-05-22T12:35:59.237Z,1244.00
2019-05-22T12:36:59.222Z,1212.00